Terminal Aerodrome Forecast
Issued by NWS Jackson, MS

Home | Current Version | Previous Version | Text Only | Print | Product List | Glossary On
Versions: 1 2 3 4 5 6 7 8 9 10 11 12 13 14 15 16
551
FTUS44 KJAN 250537
TAFMEI
TAF
KMEI 250537Z 2506/2606 00000KT P6SM SKC
     FM251000 00000KT 5SM BR SKC
     FM251400 12006KT P6SM SCT030=

USA.gov is the U.S. government's official web portal to all federal, state and local government web resources and services.